Flight Track Log - Related Links

Times and Time Zones

All times are in EST time to prevent confusion due to time zone crossing. See the N724JC flight status page for this flight to view local times or setup timezone preferences in your user account.

Time Position Orientation Groundspeed Altitude Reporting Facility
EST Latitude Longitude Course Direction KTS MPH feet Rate Location/Type
Tue 11:17:47 AM 44.9531 -93.0769 49° Northeast 159 183 1,800  Level MSP
Tue 11:19:27 AM 45.0161 -92.9736 139° Southeast 260 299 5,800 2,985 Climbing MSP
Tue 11:21:08 AM 44.9353 -92.8753 186° South 292 336 11,800 3,188 Climbing MSP
Tue 11:22:07 AM 44.8469 -92.8886 182° South 329 379 14,300 2,325 Climbing MSP
Tue 11:23:48 AM 44.6864 -92.8958 182° South 374 430 18,000 2,400 Climbing MSP
Tue 11:24:27 AM 44.6164 -92.8992 182° South 364 419 19,900 2,245 Climbing MSP
Tue 11:26:07 AM 44.4531 -92.9081 182° South 364 419 23,200 1,642 Climbing MSP
Tue 11:27:48 AM 44.2789 -92.9172 159° South 381 438 25,400 1,163 Climbing MSP
Tue 11:28:47 AM 44.1719 -92.8611 153° Southeast 426 490 26,300 900 Climbing MSP
Tue 11:30:28 AM 43.9881 -92.7319 156° South 442 509 27,800 886 Climbing MSP
Tue 11:32:17 AM 43.7867 -92.6083 150° Southeast 448 516 29,400 893 Climbing Minneapolis Center
Tue 11:33:16 AM 43.6756 -92.5208 151° Southeast 448 516 30,300 850 Climbing Minneapolis Center
Tue 11:34:17 AM 43.5644 -92.4367 152° Southeast 453 521 31,100 750 Climbing Minneapolis Center
Tue 11:35:16 AM 43.4556 -92.3556 150° Southeast 453 521 31,800 600 Climbing Minneapolis Center
Tue 11:36:17 AM 43.3419 -92.2664 152° Southeast 453 521 32,300 439 Climbing Minneapolis Center
Tue 11:38:00 AM 43.1467 -92.1214 151° Southeast 460 529 33,000 258 Climbing Chicago Center
Tue 11:39:00 AM 43.0322 -92.0339 151° Southeast 466 536 33,000  Level Chicago Center
Tue 11:40:00 AM 42.9153 -91.9439 152° Southeast 472 543 33,000  Level Chicago Center
Tue 11:41:00 AM 42.7983 -91.8597 151° Southeast 472 543 33,000  Level Chicago Center
Tue 11:42:00 AM 42.6814 -91.7731 151° Southeast 472 543 33,000  Level Chicago Center
Tue 11:43:00 AM 42.5747 -91.6928 152° Southeast 477 549 33,000  Level Chicago Center
Tue 11:44:00 AM 42.4578 -91.6069 151° Southeast 477 549 33,000  Level Chicago Center
Tue 11:45:00 AM 42.3406 -91.5186 152° Southeast 477 549 33,000  Level Chicago Center
Tue 11:46:00 AM 42.2233 -91.4331 153° Southeast 477 549 33,000  Level Chicago Center
Tue 11:47:00 AM 42.1019 -91.3481 152° Southeast 482 555 33,000  Level Chicago Center
Tue 11:48:00 AM 41.9844 -91.2633 152° Southeast 482 555 33,000  Level Chicago Center
Tue 11:49:00 AM 41.8669 -91.1789 151° Southeast 482 555 33,000  Level Chicago Center
Tue 11:50:00 AM 41.7475 -91.0894 154° Southeast 487 560 33,000  Level Chicago Center
Tue 11:51:00 AM 41.6256 -91.0083 152° Southeast 487 560 33,000  Level Chicago Center
Tue 11:52:00 AM 41.5058 -90.9247 152° Southeast 487 560 33,000  Level Chicago Center
Tue 11:53:00 AM 41.3842 -90.8389 154° Southeast 487 560 33,000  Level Chicago Center
Tue 11:54:00 AM 41.2622 -90.7586 152° Southeast 487 560 33,000  Level Chicago Center
Tue 11:55:00 AM 41.1400 -90.6706 153° Southeast 487 560 33,000  Level Chicago Center
Tue 11:56:00 AM 41.0161 -90.5856 153° Southeast 492 566 33,000  Level Chicago Center
Tue 11:57:00 AM 40.8958 -90.5036 151° Southeast 487 560 33,000  Level Chicago Center
Tue 11:58:00 AM 40.7758 -90.4164 153° Southeast 487 560 33,000  Level Chicago Center
Tue 11:59:00 AM 40.6517 -90.3325 152° Southeast 487 560 33,000  Level Chicago Center
Tue 12:00:00 PM 40.5292 -90.2486 153° Southeast 487 560 33,000  Level Chicago Center
Tue 12:01:00 PM 40.4069 -90.1681 152° Southeast 497 572 33,000  Level Chicago Center
Tue 12:02:00 PM 40.2864 -90.0847 153° Southeast 497 572 33,000  Level Chicago Center
Tue 12:04:28 PM 39.9708 -89.8733 153° Southeast 491 565 33,000  Level Kansas City Center
Tue 12:05:28 PM 39.8489 -89.7919 153° Southeast 491 565 33,000  Level Kansas City Center
Tue 12:06:28 PM 39.7267 -89.7111 153° Southeast 491 565 33,000  Level Kansas City Center
Tue 12:07:28 PM 39.6175 -89.6375 154° Southeast 491 565 33,000  Level Kansas City Center
Tue 12:08:28 PM 39.4956 -89.5597 152° Southeast 491 565 33,000  Level Kansas City Center
Tue 12:09:28 PM 39.3603 -89.4669 153° Southeast 491 565 33,000  Level Kansas City Center
Tue 12:10:28 PM 39.2403 -89.3894 154° Southeast 491 565 33,000  Level Kansas City Center
Tue 12:11:28 PM 39.1289 -89.3197 152° Southeast 491 565 33,000  Level Kansas City Center
Tue 12:12:28 PM 38.9956 -89.2303 153° Southeast 491 565 33,000  Level Kansas City Center
Tue 12:13:28 PM 38.8861 -89.1583 154° Southeast 491 565 33,000  Level Kansas City Center
Tue 12:14:28 PM 38.7508 -89.0750 153° Southeast 491 565 33,000  Level Kansas City Center
Tue 12:15:28 PM 38.6392 -89.0033 153° Southeast 491 565 33,000  Level Kansas City Center
Tue 12:16:28 PM 38.5058 -88.9178 154° Southeast 491 565 33,000  Level Kansas City Center
Tue 12:17:28 PM 38.3942 -88.8494 151° Southeast 491 565 33,000  Level Kansas City Center
Tue 12:18:28 PM 38.2756 -88.7658 155° Southeast 491 565 33,000  Level Kansas City Center
Tue 12:20:36 PM 38.0006 -88.6022 153° Southeast 494 568 33,000  Level Memphis Center
Tue 12:21:36 PM 37.8744 -88.5208 153° Southeast 489 563 33,000  Level Memphis Center
Tue 12:22:36 PM 37.7503 -88.4425 155° Southeast 489 563 33,000  Level Memphis Center
Tue 12:23:36 PM 37.6242 -88.3672 153° Southeast 494 568 33,000  Level Memphis Center
Tue 12:24:36 PM 37.5147 -88.2967 154° Southeast 494 568 33,000  Level Memphis Center
Tue 12:25:36 PM 37.3925 -88.2217 153° Southeast 494 568 33,000  Level Memphis Center
Tue 12:26:36 PM 37.2661 -88.1417 153° Southeast 494 568 33,000  Level Memphis Center
Tue 12:27:36 PM 37.1397 -88.0619 154° Southeast 504 580 33,000  Level Memphis Center
Tue 12:28:36 PM 37.0156 -87.9875 155° Southeast 499 574 33,000  Level Memphis Center
Tue 12:29:36 PM 36.8911 -87.9133 154° Southeast 494 568 33,000  Level Memphis Center
Tue 12:30:36 PM 36.7667 -87.8369 155° Southeast 494 568 33,000  Level Memphis Center
Tue 12:31:36 PM 36.6422 -87.7631 154° Southeast 494 568 33,000  Level Memphis Center
Tue 12:32:36 PM 36.5069 -87.6797 155° Southeast 494 568 33,000  Level Memphis Center
Tue 12:33:36 PM 36.3822 -87.6064 154° Southeast 494 568 33,000  Level Memphis Center
Tue 12:34:36 PM 36.2597 -87.5333 155° Southeast 494 568 33,000  Level Memphis Center
Tue 12:35:36 PM 36.1350 -87.4606 154° Southeast 494 568 33,000  Level Memphis Center
Tue 12:36:36 PM 36.0103 -87.3856 154° Southeast 494 568 33,000  Level Memphis Center
Tue 12:37:36 PM 35.8878 -87.3131 154° Southeast 494 568 33,000  Level Memphis Center
Tue 12:39:32 PM 35.6617 -87.1775 155° Southeast 476 548 33,000  Level Atlanta Center
Tue 12:40:32 PM 35.5361 -87.1039 154° Southeast 488 562 33,000  Level Atlanta Center
Tue 12:41:32 PM 35.4025 -87.0250 154° Southeast 496 571 33,000  Level Atlanta Center
Tue 12:42:32 PM 35.2914 -86.9597 155° Southeast 496 571 33,000 200 Level Atlanta Center
Tue 12:43:32 PM 35.1678 -86.8894 155° Southeast 496 571 33,400 500 Climbing Atlanta Center
Tue 12:44:32 PM 35.0422 -86.8167 153° Southeast 496 571 34,000 600 Climbing Atlanta Center
Tue 12:45:32 PM 34.9250 -86.7444 156° South 491 565 34,600 450 Climbing Atlanta Center
Tue 12:46:32 PM 34.8033 -86.6772 155° Southeast 486 559 34,900 200 Climbing Atlanta Center
Tue 12:47:32 PM 34.6817 -86.6078 154° Southeast 486 559 35,000 50 Climbing Atlanta Center
Tue 12:48:32 PM 34.5578 -86.5358 156° South 481 554 35,000  Level Atlanta Center
Tue 12:49:32 PM 34.4319 -86.4667 154° Southeast 486 559 35,000  Level Atlanta Center
Tue 12:50:32 PM 34.3039 -86.3925 155° Southeast 492 566 35,000  Level Atlanta Center
Tue 12:51:32 PM 34.1800 -86.3239 155° Southeast 498 573 35,000  Level Atlanta Center
Tue 12:52:32 PM 34.0542 -86.2528 155° Southeast 498 573 35,000  Level Atlanta Center
Tue 12:53:32 PM 33.9300 -86.1819 156° South 498 573 35,000  Level Atlanta Center
Tue 12:54:32 PM 33.8039 -86.1139 154° Southeast 498 573 35,000  Level Atlanta Center
Tue 12:55:32 PM 33.6800 -86.0408 157° South 498 573 35,000  Level Atlanta Center
Tue 12:56:32 PM 33.5392 -85.9678 155° Southeast 498 573 35,000  Level Atlanta Center
Tue 12:57:32 PM 33.4169 -85.8981 154° Southeast 498 573 35,000  Level Atlanta Center
Tue 12:58:32 PM 33.2908 -85.8256 155° Southeast 498 573 35,000  Level Atlanta Center
Tue 12:59:32 PM 33.1625 -85.7536 157° South 499 574 35,000  Level Atlanta Center
Tue 01:00:32 PM 33.0358 -85.6892 156° South 499 574 35,000  Level Atlanta Center
Tue 01:01:32 PM 32.9117 -85.6225 155° Southeast 499 574 35,000  Level Atlanta Center
Tue 01:02:32 PM 32.7975 -85.5586 156° South 499 574 35,000  Level Atlanta Center
Tue 01:03:32 PM 32.6731 -85.4922 155° Southeast 499 574 35,000  Level Atlanta Center
Tue 01:04:32 PM 32.5486 -85.4236 155° Southeast 493 567 35,000  Level Atlanta Center
Tue 01:05:32 PM 32.4200 -85.3528 157° South 498 573 35,000  Level Atlanta Center
Tue 01:06:32 PM 32.2914 -85.2869 155° Southeast 498 573 35,000  Level Atlanta Center
Tue 01:07:32 PM 32.1544 -85.2117 156° South 498 573 35,000  Level Atlanta Center
Tue 01:09:09 PM 31.9508 -85.1058 157° South 493 567 35,000  Level Jacksonville Center
Tue 01:10:09 PM 31.8350 -85.0469 156° South 498 573 35,000  Level Jacksonville Center
Tue 01:11:09 PM 31.7131 -84.9831 154° Southeast 492 566 35,000  Level Jacksonville Center
Tue 01:12:09 PM 31.5889 -84.9119 156° South 498 573 35,000  Level Jacksonville Center
Tue 01:13:09 PM 31.4606 -84.8458 156° South 498 573 35,000  Level Jacksonville Center
Tue 01:14:09 PM 31.3342 -84.7800 156° South 498 573 35,000  Level Jacksonville Center
Tue 01:15:09 PM 31.2097 -84.7144 155° Southeast 498 573 35,000  Level Jacksonville Center
Tue 01:16:09 PM 31.0875 -84.6489 157° South 498 573 35,000  Level Jacksonville Center
Tue 01:17:09 PM 30.9608 -84.5861 155° Southeast 498 573 35,000  Level Jacksonville Center
Tue 01:18:09 PM 30.8386 -84.5208 155° Southeast 498 573 35,000  Level Jacksonville Center
Tue 01:19:09 PM 30.7122 -84.4536 157° South 490 564 35,000  Level Jacksonville Center
Tue 01:20:09 PM 30.5833 -84.3886 151° Southeast 501 577 35,000  Level Jacksonville Center
Tue 01:21:09 PM 30.4550 -84.3072 150° Southeast 493 567 35,000  Level Jacksonville Center
Tue 01:22:09 PM 30.3347 -84.2283 151° Southeast 488 562 35,000  Level Jacksonville Center
Tue 01:23:09 PM 30.2269 -84.1594 151° Southeast 493 567 35,000  Level Jacksonville Center
Tue 01:24:09 PM 30.1064 -84.0836 151° Southeast 498 573 35,000  Level Jacksonville Center
Tue 01:25:09 PM 29.9881 -84.0078 150° Southeast 498 573 35,000  Level Jacksonville Center
Tue 01:26:09 PM 29.8678 -83.9272 152° Southeast 493 567 35,000  Level Jacksonville Center
Tue 01:27:09 PM 29.7347 -83.8444 150° Southeast 493 567 35,000  Level Jacksonville Center
Tue 01:28:09 PM 29.6164 -83.7669 150° Southeast 495 570 35,000  Level Jacksonville Center
Tue 01:29:09 PM 29.4978 -83.6894 151° Southeast 495 570 35,000  Level Jacksonville Center
Tue 01:30:09 PM 29.3772 -83.6122 151° Southeast 495 570 35,000  Level Jacksonville Center
Tue 01:31:09 PM 29.2567 -83.5353 150° Southeast 495 570 35,000  Level Jacksonville Center
Tue 01:32:09 PM 29.1400 -83.4583 151° Southeast 495 570 35,000  Level Jacksonville Center
Tue 01:33:09 PM 29.0172 -83.3817 176° South 495 570 35,000  Level Jacksonville Center
Tue 01:36:06 PM 28.6542 -83.3506 181° South 466 536 35,000  Level Miami Center
Tue 01:37:06 PM 28.5250 -83.3525 183° South 466 536 35,000  Level Miami Center
Tue 01:38:06 PM 28.3975 -83.3592 183° South 466 536 35,000  Level Miami Center
Tue 01:39:06 PM 28.2719 -83.3661 183° South 466 536 35,000 -50 Level Miami Center
Tue 01:40:06 PM 28.1425 -83.3728 179° South 466 536 34,900 -300 Descending Miami Center
Tue 01:41:06 PM 28.0111 -83.3697 158° South 466 536 34,400 -1,000 Descending Miami Center
Tue 01:42:06 PM 27.8864 -83.3133 146° Southeast 471 542 32,900 -2,000 Descending Miami Center
Tue 01:43:06 PM 27.7756 -83.2297 146° Southeast 468 539 30,400 -2,500 Descending Miami Center
Tue 01:44:06 PM 27.6625 -83.1439 146° Southeast 468 539 27,900 -2,450 Descending Miami Center
Tue 01:45:06 PM 27.5475 -83.0556 147° Southeast 481 554 25,500 -2,450 Descending Miami Center
Tue 01:46:06 PM 27.4442 -82.9800 145° Southeast 476 548 23,000 -2,300 Descending Miami Center
Tue 01:47:06 PM 27.3472 -82.9044 146° Southeast 448 516 20,900 -2,050 Descending Miami Center
Tue 01:48:06 PM 27.2542 -82.8344 146° Southeast 414 476 18,900 -1,750 Descending Miami Center
Tue 01:49:06 PM 27.1672 -82.7692 148° Southeast 392 451 17,400 -1,750 Descending Miami Center
Tue 01:50:06 PM 27.0819 -82.7089 146° Southeast 379 436 15,400 -1,850 Descending Miami Center
Tue 01:51:06 PM 27.0011 -82.6467 146° Southeast 373 429 13,700 -1,600 Descending Miami Center
Tue 01:52:06 PM 26.9200 -82.5844 148° Southeast 362 417 12,200 -1,100 Descending Miami Center
Tue 01:53:06 PM 26.8450 -82.5319 146° Southeast 343 395 11,500 -550 Descending Miami Center
Tue 01:54:06 PM 26.7658 -82.4722 147° Southeast 337 388 11,100 -300 Descending Miami Center
Tue 01:55:06 PM 26.6928 -82.4200 145° Southeast 332 382 10,900 -650 Descending Miami Center
Tue 01:56:06 PM 26.6319 -82.3728 148° Southeast 302 348 9,800 -1,500 Descending Miami Center
Tue 01:57:06 PM 26.5647 -82.3256 145° Southeast 283 326 7,900 -1,700 Descending Miami Center
Tue 01:58:06 PM 26.5019 -82.2764 149° Southeast 283 326 6,400 -1,300 Descending Miami Center
Tue 01:59:06 PM 26.4389 -82.2342 147° Southeast 272 313 5,300 -700 Descending Miami Center
Tue 02:00:06 PM 26.3797 -82.1919 143° Southeast 266 306 5,000 -150 Descending Miami Center
Tue 02:01:06 PM 26.3211 -82.1431 128° Southeast 266 306 5,000  Level Miami Center
Tue 02:02:06 PM 26.2772 -82.0808 128° Southeast 261 300 5,000  Level Miami Center
Tue 02:03:06 PM 26.2375 -82.0236 338° Northwest 250 288 5,000 -754 Level Miami Center
Tue 02:08:52 PM 26.8409 -82.3016 338° Northwest -1 -474 Descending FlightAware Approximate
Tue 02:13:52 PM 27.4438 -82.5825 338° Northwest -1  Level FlightAware Approximate

Login

Don't have an account? Register now (free) for customized features, flight alerts, and more!